Time;durP1;ratioP1;P1;durP2;ratioP2;P2;SDS_P1;SDS_P2;PMS_P1;PMS_P2;Temp;Humidity;BMP_temperature;BMP_pressure;BME280_temperature;BME280_humidity;BME280_pressure;Samples;Min_cycle;Max_cycle;Signal;HPM_P1;HPM_P2
2023/09/26 00:00:22;;;;;;;2.30;2.10;;;;;;;12.89;94.23;102100.78;5052381;28;20025;-79
2023/09/26 00:05:13;;;;;;;2.63;2.20;;;;;;;12.94;94.30;102102.50;5305293;22;20053;-79
2023/09/26 00:07:38;;;;;;;2.78;2.25;;;;;;;12.96;94.57;102102.47;5032858;28;20401;-80
2023/09/26 00:10:05;;;;;;;2.93;2.20;;;;;;;12.92;94.66;102100.78;5031295;28;20075;-79
2023/09/26 00:12:31;;;;;;;2.55;2.28;;;;;;;12.89;94.83;102098.16;5032867;28;20025;-79
2023/09/26 00:14:57;;;;;;;2.90;2.40;;;;;;;12.90;94.54;102099.91;5032820;28;20021;-79
2023/09/26 00:17:22;;;;;;;2.97;2.30;;;;;;;12.88;94.67;102104.25;5031777;28;20036;-79
2023/09/26 00:19:48;;;;;;;2.30;2.10;;;;;;;12.88;94.81;102099.94;5032670;28;20474;-79
2023/09/26 00:22:13;;;;;;;2.47;2.27;;;;;;;12.85;94.48;102096.44;5032725;28;20057;-79
2023/09/26 00:24:38;;;;;;;2.50;2.30;;;;;;;12.80;94.54;102097.34;5032047;28;20029;-79
2023/09/26 00:27:04;;;;;;;2.70;2.40;;;;;;;12.78;94.71;102100.81;5032156;28;20021;-79
2023/09/26 00:32:38;;;;;;;2.70;2.38;;;;;;;12.70;94.76;102098.25;5031446;28;20041;-79
2023/09/26 00:41:57;;;;;;;3.22;2.38;;;;;;;12.49;95.06;102092.28;4971659;28;20038;-79
2023/09/26 00:44:22;;;;;;;2.42;2.22;;;;;;;12.39;95.15;102080.13;4971292;28;20130;-79
2023/09/26 00:46:47;;;;;;;3.23;2.50;;;;;;;12.48;95.06;102095.75;5019294;28;20112;-79
2023/09/26 00:49:13;;;;;;;2.30;2.10;;;;;;;12.49;95.25;102100.09;5031868;28;20037;-79
2023/09/26 00:51:38;;;;;;;2.23;2.03;;;;;;;12.45;95.43;102100.06;5036118;28;20029;-79
2023/09/26 00:54:09;;;;;;;2.43;2.23;;;;;;;12.42;96.22;102097.50;5035700;28;20025;-79
2023/09/26 00:56:35;;;;;;;2.35;2.10;;;;;;;12.39;95.25;102093.13;5036130;28;20037;-79
2023/09/26 00:59:00;;;;;;;2.43;2.20;;;;;;;12.36;95.60;102090.56;5050582;28;20801;-79
2023/09/26 01:01:30;;;;;;;2.27;2.10;;;;;;;12.34;95.88;102094.91;5036014;28;20091;-79
2023/09/26 01:03:57;;;;;;;2.45;2.10;;;;;;;12.31;95.77;102090.59;5433483;22;20064;-79
2023/09/26 01:06:22;;;;;;;2.20;2.00;;;;;;;12.30;95.77;102095.78;5055089;28;20527;-79
2023/09/26 01:08:47;;;;;;;2.00;1.90;;;;;;;12.27;96.38;102081.03;5055922;28;20017;-79
2023/09/26 01:11:13;;;;;;;2.20;2.00;;;;;;;12.28;95.94;102076.69;5055254;28;20071;-79
2023/09/26 01:13:39;;;;;;;2.20;2.00;;;;;;;12.26;95.95;102083.66;5055182;28;20021;-79
2023/09/26 01:16:17;;;;;;;2.73;2.13;;;;;;;12.24;96.08;102075.81;5055646;28;20358;-79
2023/09/26 01:18:44;;;;;;;2.40;2.20;;;;;;;12.25;96.11;102076.72;5060806;28;20028;-79
2023/09/26 01:21:10;;;;;;;2.53;2.33;;;;;;;12.23;95.97;102070.63;5074742;28;20108;-79
2023/09/26 01:23:57;;;;;;;3.35;2.55;;;;;;;12.23;96.24;102089.72;5252514;22;20053;-79
2023/09/26 01:28:51;;;;;;;2.88;2.30;;;;;;;12.20;96.26;102088.00;4994089;28;20042;-79
2023/09/26 01:31:17;;;;;;;2.92;2.35;;;;;;;12.18;96.21;102084.50;4996082;28;20026;-79
2023/09/26 01:33:42;;;;;;;2.60;2.37;;;;;;;12.20;96.17;102092.34;4996325;28;20364;-79
2023/09/26 01:36:08;;;;;;;3.30;2.37;;;;;;;12.15;96.67;102083.66;4994984;28;20026;-79
2023/09/26 01:38:33;;;;;;;2.90;2.60;;;;;;;12.20;96.29;102088.00;4996089;28;20030;-79
2023/09/26 01:43:53;;;;;;;2.85;2.40;;;;;;;12.12;96.36;102060.25;4955261;28;20472;-79
2023/09/26 01:46:20;;;;;;;2.30;2.10;;;;;;;12.22;96.42;102082.78;4995556;28;20018;-79
2023/09/26 01:48:46;;;;;;;2.40;2.20;;;;;;;12.18;96.48;102081.91;4990205;28;20079;-79
2023/09/26 01:51:11;;;;;;;2.40;2.20;;;;;;;12.16;96.42;102081.03;4976456;28;20027;-79
2023/09/26 01:53:40;;;;;;;2.80;2.50;;;;;;;12.11;96.37;102076.72;4976070;28;20122;-79
2023/09/26 01:56:05;;;;;;;3.42;2.50;;;;;;;12.10;96.66;102078.47;4971875;28;20098;-79
2023/09/26 01:58:32;;;;;;;2.53;2.20;;;;;;;12.12;96.77;102081.06;4977332;28;20027;-79
2023/09/26 02:00:57;;;;;;;2.92;2.40;;;;;;;12.10;96.66;102072.41;4976174;28;20027;-79
2023/09/26 02:03:23;;;;;;;2.50;2.20;;;;;;;12.07;97.13;102070.66;4975271;28;20380;-79
2023/09/26 02:05:48;;;;;;;2.77;2.27;;;;;;;12.05;96.86;102073.28;4976343;28;20115;-79
2023/09/26 02:08:16;;;;;;;2.30;2.10;;;;;;;12.03;96.59;102068.97;4975975;28;20077;-79
2023/09/26 02:10:41;;;;;;;2.50;2.30;;;;;;;12.02;96.80;102067.22;4975773;28;20042;-79
2023/09/26 02:13:07;;;;;;;2.83;2.40;;;;;;;12.03;96.99;102074.16;4976022;28;20027;-79
2023/09/26 02:15:32;;;;;;;2.80;2.53;;;;;;;12.01;97.03;102065.47;4975706;28;20491;-79
2023/09/26 02:17:57;;;;;;;2.63;2.43;;;;;;;12.01;97.20;102055.94;4975425;28;20034;-79
2023/09/26 02:20:23;;;;;;;3.40;2.60;;;;;;;12.03;96.80;102066.34;4976128;28;20023;-79
2023/09/26 02:22:50;;;;;;;3.60;2.60;;;;;;;11.90;96.81;102048.13;4976024;28;20498;-79
2023/09/26 02:27:43;;;;;;;2.85;2.35;;;;;;;12.01;97.07;102058.53;5183650;22;20055;-79
2023/09/26 02:30:10;;;;;;;4.50;3.00;;;;;;;11.97;97.08;102045.50;5073516;28;20021;-78
2023/09/26 02:32:36;;;;;;;3.08;2.50;;;;;;;12.00;97.32;102062.00;5074927;28;20099;-79
2023/09/26 02:35:03;;;;;;;4.60;2.70;;;;;;;11.97;97.26;102061.09;5074476;28;20497;-79
2023/09/26 02:37:28;;;;;;;3.70;3.00;;;;;;;11.99;97.48;102059.41;5073364;28;20082;-79
2023/09/26 02:39:55;;;;;;;4.47;2.80;;;;;;;11.97;97.30;102067.19;5074390;28;20024;-79
2023/09/26 02:42:20;;;;;;;3.05;2.60;;;;;;;11.96;97.23;102065.47;5073515;28;20028;-79
2023/09/26 02:44:58;;;;;;;3.83;2.93;;;;;;;11.92;97.17;102052.47;5073434;28;20021;-79
2023/09/26 02:50:00;;;;;;;4.13;2.90;;;;;;;11.88;97.32;102042.06;5103695;22;19925;-79
2023/09/26 02:52:25;;;;;;;4.35;3.00;;;;;;;11.88;97.68;102043.78;5014967;28;20045;-79
2023/09/26 02:54:51;;;;;;;3.40;2.70;;;;;;;11.86;97.43;102043.78;5034229;28;20025;-79
2023/09/26 02:57:19;;;;;;;3.17;2.70;;;;;;;11.85;97.60;102038.59;5033372;28;20036;-79
2023/09/26 02:59:44;;;;;;;3.08;2.60;;;;;;;11.81;97.54;102035.13;5033020;28;20421;-79
2023/09/26 03:02:09;;;;;;;3.47;2.70;;;;;;;11.79;97.57;102031.66;5033920;28;20040;-79
2023/09/26 03:04:35;;;;;;;3.23;2.50;;;;;;;11.80;97.81;102029.91;5034119;28;20048;-79
2023/09/26 03:07:03;;;;;;;2.97;2.57;;;;;;;11.74;97.88;102023.00;5032936;28;20026;-79
2023/09/26 03:13:09;;;;;;;3.53;2.60;;;;;;;11.67;97.62;102014.31;5032555;28;20047;-79
2023/09/26 03:15:35;;;;;;;3.25;2.50;;;;;;;11.69;97.86;102014.34;5033594;28;20030;-79
2023/09/26 03:18:35;;;;;;;2.67;2.40;;;;;;;11.69;97.84;102017.78;5033737;28;20028;-79
2023/09/26 03:21:13;;;;;;;5.00;2.80;;;;;;;11.67;97.99;102010.88;5033156;28;20037;-79
2023/09/26 03:24:06;;;;;;;2.90;2.60;;;;;;;11.78;97.90;102022.13;5033719;28;20033;-79
2023/09/26 03:27:02;;;;;;;3.78;2.80;;;;;;;11.76;97.91;102020.41;5032332;28;20030;-79
2023/09/26 03:29:28;;;;;;;2.90;2.40;;;;;;;11.62;97.95;101999.59;5033504;28;20022;-79
2023/09/26 03:31:53;;;;;;;2.70;2.47;;;;;;;11.71;98.01;102021.25;5033620;28;20029;-79
2023/09/26 03:34:18;;;;;;;4.17;2.70;;;;;;;11.71;98.10;102023.88;5032296;28;20025;-79
2023/09/26 03:36:56;;;;;;;3.30;2.60;;;;;;;11.69;97.96;102015.19;5033283;28;20030;-79
2023/09/26 03:41:57;;;;;;;3.28;2.70;;;;;;;11.67;97.82;102023.88;5223051;22;20049;-79
2023/09/26 03:44:27;;;;;;;2.70;2.50;;;;;;;11.65;98.22;102021.25;5052866;28;20393;-79
2023/09/26 03:46:52;;;;;;;4.05;2.83;;;;;;;11.65;98.06;102018.66;5053045;28;20473;-79
2023/09/26 03:49:18;;;;;;;4.50;2.80;;;;;;;11.66;98.32;102022.13;5051311;28;20033;-79
2023/09/26 03:51:43;;;;;;;3.33;3.03;;;;;;;11.64;98.13;102021.25;5052777;28;20112;-79
2023/09/26 03:54:08;;;;;;;4.03;3.07;;;;;;;11.65;98.17;102012.59;5052554;28;20025;-79
2023/09/26 03:56:34;;;;;;;4.37;2.80;;;;;;;11.61;98.24;102010.88;5052434;28;20138;-79
2023/09/26 04:01:27;;;;;;;3.88;3.00;;;;;;;11.58;98.21;102011.75;5071095;28;20045;-79
2023/09/26 04:03:53;;;;;;;3.43;2.90;;;;;;;11.53;98.34;102003.94;5071688;28;20051;-79
2023/09/26 04:06:18;;;;;;;3.77;3.07;;;;;;;11.53;98.33;102005.69;5072738;28;20091;-80
2023/09/26 04:08:44;;;;;;;4.77;3.27;;;;;;;11.52;98.45;102009.16;5072310;28;20708;-79
2023/09/26 04:11:16;;;;;;;4.37;2.97;;;;;;;11.51;98.46;102010.03;5209791;22;20049;-79
2023/09/26 04:13:42;;;;;;;3.83;3.00;;;;;;;11.49;98.51;102003.94;5032822;28;20394;-79
2023/09/26 04:16:13;;;;;;;4.13;3.30;;;;;;;11.48;98.37;102010.00;5031567;28;20033;-79
2023/09/26 04:18:39;;;;;;;3.97;3.05;;;;;;;11.48;98.55;102010.91;5032570;28;20030;-79
2023/09/26 04:21:06;;;;;;;3.70;3.10;;;;;;;11.44;98.17;102006.56;5032291;28;20029;-79
2023/09/26 04:23:32;;;;;;;4.35;3.20;;;;;;;11.40;98.49;102003.09;5031649;28;20540;-79
2023/09/26 04:25:57;;;;;;;3.43;2.90;;;;;;;11.38;98.74;101999.63;5032575;28;20116;-79
2023/09/26 04:28:23;;;;;;;4.20;2.80;;;;;;;11.28;98.58;101988.34;5032333;28;20045;-79
2023/09/26 04:30:51;;;;;;;4.07;2.90;;;;;;;11.28;98.58;101985.75;5031717;28;20505;-79
2023/09/26 04:33:16;;;;;;;3.88;3.03;;;;;;;11.26;98.61;101982.28;5032301;28;20020;-79
2023/09/26 04:35:42;;;;;;;4.33;3.00;;;;;;;11.25;98.51;101974.50;5278007;22;20136;-79
2023/09/26 04:38:07;;;;;;;3.97;3.03;;;;;;;11.26;98.77;101979.69;5051565;28;20021;-78
2023/09/26 04:40:39;;;;;;;3.97;3.20;;;;;;;11.27;98.70;101986.63;5052372;28;20033;-79
2023/09/26 04:43:05;;;;;;;3.78;2.90;;;;;;;11.27;98.83;101989.22;5051964;28;20035;-79
2023/09/26 04:45:33;;;;;;;3.43;2.90;;;;;;;11.26;98.96;101987.47;5051437;28;20100;-79
2023/09/26 04:48:03;;;;;;;3.17;2.70;;;;;;;11.24;99.13;101978.84;5051385;28;20351;-79
2023/09/26 04:50:29;;;;;;;3.72;2.85;;;;;;;11.23;99.04;101978.81;5049253;28;20393;-79
2023/09/26 04:53:16;;;;;;;3.88;2.92;;;;;;;11.25;99.21;101983.16;5034509;28;20081;-80
2023/09/26 04:55:54;;;;;;;3.33;2.47;;;;;;;11.18;99.15;101965.81;5052314;28;20377;-79
2023/09/26 04:58:19;;;;;;;3.90;2.80;;;;;;;11.22;99.34;101966.69;5050725;28;20474;-79
2023/09/26 05:00:44;;;;;;;2.70;2.50;;;;;;;11.11;99.27;101953.72;5052046;28;20053;-78
2023/09/26 05:03:10;;;;;;;3.10;2.50;;;;;;;11.22;99.44;101964.97;5052188;28;20025;-78
2023/09/26 05:05:35;;;;;;;3.43;2.70;;;;;;;11.24;99.48;101970.16;5051175;28;20025;-78
2023/09/26 05:08:00;;;;;;;3.53;2.83;;;;;;;11.23;99.50;101964.13;5051903;28;20473;-78
2023/09/26 05:10:28;;;;;;;4.07;2.67;;;;;;;11.23;99.51;101965.81;5051294;28;20531;-79
2023/09/26 05:12:54;;;;;;;3.45;3.00;;;;;;;11.28;99.44;101974.50;5051464;28;20021;-78
2023/09/26 05:15:19;;;;;;;3.27;2.87;;;;;;;11.29;99.74;101976.25;5051364;28;20035;-79
2023/09/26 05:17:49;;;;;;;3.87;2.93;;;;;;;11.30;99.58;101977.09;5051663;28;20037;-78
2023/09/26 05:20:16;;;;;;;3.10;2.53;;;;;;;11.29;99.34;101978.84;5051245;28;20029;-78
2023/09/26 05:22:46;;;;;;;;;;;;;;;11.28;99.58;101982.31;5052412;28;20044;-78
2023/09/26 05:25:11;;;;;;;3.08;2.30;;;;;;;11.25;99.48;101983.16;5051083;28;19913;-78
2023/09/26 05:27:38;;;;;;;2.60;2.40;;;;;;;11.22;99.67;101980.56;5051059;28;20139;-79
2023/09/26 05:30:09;;;;;;;2.50;2.30;;;;;;;11.21;99.61;101975.34;5051949;28;20386;-79
2023/09/26 05:32:34;;;;;;;2.70;2.30;;;;;;;11.18;99.66;101970.19;5052046;28;20041;-78
2023/09/26 05:35:00;;;;;;;3.37;2.40;;;;;;;11.15;99.77;101976.22;5051310;28;20029;-79
2023/09/26 05:37:25;;;;;;;3.67;2.53;;;;;;;11.17;99.85;101968.44;5054841;28;20045;-78
2023/09/26 05:39:50;;;;;;;3.57;2.60;;;;;;;11.19;100.00;101966.72;5055264;28;20104;-78
2023/09/26 05:42:16;;;;;;;2.63;2.40;;;;;;;11.19;100.00;101972.75;5054222;28;20116;-78
2023/09/26 05:44:51;;;;;;;;;;;;;;;;;;;;;
2023/09/26 05:50:03;;;;;;;3.10;2.53;;;;;;;11.12;99.81;101966.69;5055367;28;20036;-79
2023/09/26 05:52:28;;;;;;;3.72;2.40;;;;;;;11.24;100.00;101977.97;5055296;28;20033;-79
2023/09/26 05:54:54;;;;;;;3.30;2.73;;;;;;;11.23;100.00;101984.00;5054779;28;20021;-78
2023/09/26 05:57:50;;;;;;;2.80;2.60;;;;;;;11.32;99.95;101991.81;5054513;28;20037;-78
2023/09/26 06:00:21;;;;;;;3.47;2.65;;;;;;;11.24;100.00;101975.34;5054876;28;20391;-80
2023/09/26 06:02:52;;;;;;;2.55;2.35;;;;;;;11.33;100.00;101990.09;5054339;28;20021;-80
2023/09/26 06:05:17;;;;;;;2.60;2.40;;;;;;;11.34;100.00;101984.88;5055077;28;20032;-77
2023/09/26 06:07:43;;;;;;;3.07;2.50;;;;;;;11.38;100.00;101984.03;5055217;28;20409;-77
2023/09/26 06:10:10;;;;;;;2.50;2.30;;;;;;;11.44;100.00;101988.34;5053891;28;20017;-77
2023/09/26 06:12:40;;;;;;;2.75;2.47;;;;;;;11.46;100.00;101994.44;5054988;28;20347;-78
2023/09/26 06:15:07;;;;;;;2.40;2.20;;;;;;;11.52;100.00;101983.16;5054376;28;20024;-77
2023/09/26 06:17:33;;;;;;;;;;;;;;;11.57;100.00;101989.19;5054183;28;20118;-77
2023/09/26 06:19:58;;;;;;;;;;;;;;;11.59;100.00;101995.28;5055143;28;19916;-78
2023/09/26 06:22:24;;;;;;;2.60;2.23;;;;;;;11.59;100.00;101985.75;5053494;28;19919;-77
2023/09/26 06:24:49;;;;;;;2.80;2.50;;;;;;;11.64;100.00;101977.94;5054424;28;20453;-77
2023/09/26 06:27:15;;;;;;;3.80;2.60;;;;;;;11.65;100.00;101971.00;5054210;28;20478;-77
2023/09/26 06:29:43;;;;;;;3.77;2.87;;;;;;;11.70;100.00;101967.53;5053904;28;20095;-77
2023/09/26 06:32:10;;;;;;;3.03;2.58;;;;;;;11.67;100.00;101958.88;5051257;28;20029;-77
2023/09/26 06:34:47;;;;;;;3.38;2.65;;;;;;;11.83;100.00;101967.50;5054371;28;20021;-78
2023/09/26 06:37:12;;;;;;;3.28;2.60;;;;;;;11.79;100.00;101950.16;5052899;28;20052;-78
2023/09/26 06:39:37;;;;;;;5.47;3.00;;;;;;;11.95;100.00;101964.88;5052820;28;20381;-78
2023/09/26 06:42:03;;;;;;;4.27;2.80;;;;;;;11.91;100.00;101955.31;5054063;28;20124;-80
2023/09/26 06:44:29;;;;;;;3.43;2.40;;;;;;;12.06;100.00;101975.25;5053611;28;20381;-78
2023/09/26 06:46:57;;;;;;;2.30;2.10;;;;;;;12.14;100.00;101986.53;5054363;28;20029;-77
2023/09/26 06:49:54;;;;;;;2.95;2.53;;;;;;;12.05;100.00;101958.78;5053775;28;20549;-78
2023/09/26 06:52:30;;;;;;;2.53;2.33;;;;;;;12.23;100.00;101984.75;5031685;28;20484;-78
2023/09/26 06:57:41;;;;;;;2.97;2.50;;;;;;;12.30;100.00;101979.53;5052971;28;19924;-78
2023/09/26 07:00:19;;;;;;;3.77;2.60;;;;;;;12.37;100.00;101988.16;5053927;28;20054;-78
2023/09/26 07:02:46;;;;;;;3.20;2.42;;;;;;;12.41;100.00;101981.22;5053737;28;20474;-78
2023/09/26 07:05:12;;;;;;;2.65;2.25;;;;;;;12.47;100.00;101989.84;5053069;28;20032;-78
2023/09/26 07:07:38;;;;;;;2.50;2.30;;;;;;;12.52;100.00;101993.28;5053859;28;20013;-78
2023/09/26 07:10:05;;;;;;;2.53;2.10;;;;;;;12.57;100.00;101989.81;5053648;28;20025;-78
2023/09/26 07:12:30;;;;;;;3.25;2.53;;;;;;;12.62;100.00;101990.63;5052785;28;20036;-78
2023/09/26 07:14:56;;;;;;;2.40;2.20;;;;;;;12.67;100.00;101984.53;5053981;28;20025;-78
2023/09/26 07:17:22;;;;;;;4.10;2.90;;;;;;;12.73;100.00;101987.97;5053125;28;20381;-78
2023/09/26 07:19:48;;;;;;;3.13;2.37;;;;;;;12.80;100.00;101989.66;5052923;28;20454;-78
2023/09/26 07:22:14;;;;;;;;;;;;;;;12.89;100.00;101988.75;5053527;28;20052;-78
2023/09/26 07:24:39;;;;;;;5.70;3.20;;;;;;;12.95;100.00;101979.16;5053688;28;19927;-78
2023/09/26 07:27:09;;;;;;;4.63;3.13;;;;;;;13.06;100.00;101973.00;5052546;28;20104;-79
2023/09/26 07:29:37;;;;;;;4.32;3.00;;;;;;;13.16;100.00;101974.66;5053479;28;20029;-78
2023/09/26 07:32:02;;;;;;;6.40;3.88;;;;;;;13.28;100.00;101978.91;5053102;28;20521;-78
2023/09/26 07:34:30;;;;;;;5.13;3.50;;;;;;;13.22;100.00;101969.41;5052535;28;20115;-78
2023/09/26 07:37:24;;;;;;;4.35;3.55;;;;;;;13.38;100.00;101975.34;5053196;28;20052;-79
2023/09/26 07:40:45;;;;;;;4.63;3.20;;;;;;;13.52;100.00;101990.00;5051786;28;20123;-79
2023/09/26 07:43:29;;;;;;;4.00;2.88;;;;;;;13.53;100.00;101970.88;5052984;28;20037;-78
2023/09/26 07:46:03;;;;;;;8.90;3.80;;;;;;;13.69;100.00;101984.63;5053181;28;20025;-79
2023/09/26 07:48:29;;;;;;;7.38;3.85;;;;;;;13.73;100.00;101978.50;5052294;28;20025;-79
2023/09/26 07:50:56;;;;;;;5.28;3.60;;;;;;;13.81;100.00;101975.81;5053051;28;20017;-79
2023/09/26 07:53:21;;;;;;;4.47;3.20;;;;;;;13.92;100.00;101980.91;5052811;28;20025;-78
2023/09/26 07:55:50;;;;;;;5.17;3.00;;;;;;;13.92;100.00;101970.47;5052281;28;20028;-78
2023/09/26 07:58:16;;;;;;;4.03;2.90;;;;;;;14.05;100.00;101982.50;5047613;28;20033;-78
2023/09/26 08:00:42;;;;;;;4.15;3.20;;;;;;;14.11;100.00;101987.69;5044013;28;20548;-78
2023/09/26 08:03:33;;;;;;;3.15;2.50;;;;;;;14.20;100.00;101991.91;5052379;28;20021;-78
2023/09/26 08:09:44;;;;;;;3.92;2.67;;;;;;;14.29;100.00;101959.59;5051909;28;20043;-78
2023/09/26 08:12:09;;;;;;;4.32;3.00;;;;;;;14.51;100.00;101986.31;5012896;28;20037;-78
2023/09/26 08:14:38;;;;;;;3.83;2.80;;;;;;;14.54;100.00;101967.09;5052254;28;20542;-78
2023/09/26 08:17:03;;;;;;;4.53;2.85;;;;;;;14.63;100.00;101967.84;5051457;28;20390;-78
2023/09/26 08:19:29;;;;;;;3.67;3.00;;;;;;;14.56;100.00;101940.06;5052782;28;20036;-78
2023/09/26 08:22:28;;;;;;;4.27;3.10;;;;;;;14.77;100.00;101958.97;5052046;28;20060;-78
2023/09/26 08:25:25;;;;;;;5.40;3.40;;;;;;;14.74;99.45;101945.97;5051832;28;20040;-78
2023/09/26 08:27:50;;;;;;;3.50;2.95;;;;;;;14.88;99.65;101964.88;5052415;28;20048;-78
2023/09/26 08:30:15;;;;;;;6.23;3.80;;;;;;;15.03;100.00;101970.78;5051077;28;20021;-78
2023/09/26 08:32:42;;;;;;;4.83;3.20;;;;;;;15.10;100.00;101959.31;5051843;28;20473;-79
2023/09/26 08:35:10;;;;;;;6.10;3.92;;;;;;;15.21;99.03;101954.75;5051520;28;20029;-80
2023/09/26 08:37:38;;;;;;;5.00;3.50;;;;;;;15.37;99.42;101971.06;5050894;28;20053;-78
2023/09/26 08:40:05;;;;;;;6.03;3.25;;;;;;;15.51;99.61;101965.59;5051422;28;20033;-78
2023/09/26 08:42:36;;;;;;;6.15;3.78;;;;;;;15.62;98.57;101968.00;5052141;28;20547;-78
2023/09/26 08:45:23;;;;;;;6.70;3.83;;;;;;;15.69;97.25;101963.53;5051805;28;20045;-78
2023/09/26 08:47:48;;;;;;;4.95;3.45;;;;;;;15.86;98.16;101973.69;5052325;28;20497;-78
2023/09/26 08:50:52;;;;;;;4.97;3.50;;;;;;;16.07;98.14;101967.19;5051034;28;20025;-79
2023/09/26 08:53:30;;;;;;;3.40;2.65;;;;;;;16.18;98.09;101952.13;4999774;28;20112;-79
2023/09/26 08:56:18;;;;;;;3.67;2.85;;;;;;;16.34;97.65;101936.94;5052338;28;20024;-79
2023/09/26 08:59:14;;;;;;;3.63;2.50;;;;;;;16.41;97.19;101935.03;5051287;28;20108;-79
2023/09/26 09:01:40;;;;;;;5.53;3.10;;;;;;;16.54;95.13;101942.63;5051089;28;20134;-77
2023/09/26 09:04:18;;;;;;;4.53;3.47;;;;;;;16.72;95.64;101954.44;5050867;28;20044;-79
2023/09/26 09:07:21;;;;;;;4.25;2.88;;;;;;;16.77;95.69;101940.34;5052197;28;20036;-76
2023/09/26 09:10:21;;;;;;;3.70;3.17;;;;;;;16.94;93.93;101932.06;5052263;28;20039;-77
2023/09/26 09:13:03;;;;;;;7.45;3.58;;;;;;;17.16;94.28;101942.03;5055466;28;20448;-78
2023/09/26 09:15:34;;;;;;;5.10;3.30;;;;;;;17.31;93.62;101942.53;5043990;28;20147;-78
2023/09/26 09:18:08;;;;;;;4.95;3.20;;;;;;;17.43;93.04;101936.94;5055729;28;20036;-78
2023/09/26 09:20:34;;;;;;;4.18;3.10;;;;;;;17.57;91.63;101945.31;5055812;28;20434;-76
2023/09/26 09:23:52;;;;;;;4.55;3.05;;;;;;;17.83;91.88;101950.75;5055784;28;20029;-80
2023/09/26 09:26:21;;;;;;;5.07;2.80;;;;;;;17.92;90.05;101955.72;5054420;28;20044;-77
2023/09/26 09:28:48;;;;;;;3.08;2.53;;;;;;;18.06;91.79;101958.03;5055647;28;20021;-76
2023/09/26 09:31:15;;;;;;;2.22;2.03;;;;;;;18.23;91.85;101960.16;5055258;28;20445;-76
2023/09/26 09:33:51;;;;;;;2.20;2.00;;;;;;;18.35;90.33;101959.75;5054434;28;20028;-76
2023/09/26 09:36:17;;;;;;;2.40;2.20;;;;;;;18.46;89.64;101953.34;5054512;28;20124;-76
2023/09/26 09:38:43;;;;;;;3.67;2.35;;;;;;;18.60;88.37;101947.66;5055529;28;20064;-75
2023/09/26 09:41:08;;;;;;;5.77;2.87;;;;;;;18.67;88.17;101952.66;5054094;28;20047;-75
2023/09/26 09:43:37;;;;;;;2.77;2.47;;;;;;;18.71;88.37;101936.75;5055441;28;20428;-75
2023/09/26 09:46:10;;;;;;;3.33;2.60;;;;;;;18.79;86.11;101948.78;5054637;28;20025;-76
2023/09/26 09:48:41;;;;;;;3.85;2.58;;;;;;;18.89;87.28;101938.81;5055090;28;20021;-79
2023/09/26 09:51:10;;;;;;;2.92;2.40;;;;;;;19.00;87.29;101927.13;5054324;28;20445;-79
2023/09/26 09:53:36;;;;;;;5.60;2.60;;;;;;;19.09;85.15;101924.16;5054432;28;20450;-79
2023/09/26 09:56:06;;;;;;;2.42;2.10;;;;;;;19.20;86.82;101924.66;5054974;28;20385;-79
2023/09/26 09:58:37;;;;;;;2.10;1.90;;;;;;;19.33;87.84;101924.22;5054781;28;20033;-79
2023/09/26 10:01:04;;;;;;;1.88;1.77;;;;;;;19.41;87.70;101930.97;5053922;28;20029;-79
2023/09/26 10:03:30;;;;;;;2.90;2.00;;;;;;;19.49;84.10;101929.81;5053611;28;20033;-79
2023/09/26 10:05:59;;;;;;;1.90;1.80;;;;;;;19.52;83.19;101930.56;5055126;28;20363;-79
2023/09/26 10:08:26;;;;;;;3.03;2.20;;;;;;;19.58;84.98;101930.34;5053952;28;20393;-79
2023/09/26 10:10:53;;;;;;;2.08;1.88;;;;;;;19.62;85.82;101930.22;5037006;28;20024;-79
2023/09/26 10:13:19;;;;;;;1.70;1.60;;;;;;;19.71;85.50;101936.03;5054278;28;20051;-79
2023/09/26 10:16:16;;;;;;;1.98;1.80;;;;;;;19.75;84.41;101935.00;5054160;28;20557;-79
2023/09/26 10:18:44;;;;;;;1.70;1.60;;;;;;;19.80;84.79;101933.97;5054873;28;20025;-80
2023/09/26 10:21:24;;;;;;;1.95;1.70;;;;;;;19.83;84.92;101928.59;5053333;28;20033;-80
2023/09/26 10:24:08;;;;;;;1.70;1.60;;;;;;;19.86;84.47;101933.78;5054465;28;20029;-80
2023/09/26 10:26:39;;;;;;;2.55;2.00;;;;;;;19.83;81.56;101929.44;5054398;28;20529;-80
2023/09/26 10:29:19;;;;;;;2.10;1.90;;;;;;;19.85;84.06;101935.50;5501066;22;19999;-80
2023/09/26 10:31:57;;;;;;;2.08;1.65;;;;;;;19.89;85.04;101934.53;5033054;28;20081;-80
2023/09/26 10:34:27;;;;;;;1.65;1.50;;;;;;;19.89;84.22;101929.25;5020893;28;20290;-75
2023/09/26 10:36:54;;;;;;;1.70;1.60;;;;;;;19.90;83.78;101925.72;5014083;28;20433;-79
2023/09/26 10:39:32;;;;;;;1.35;1.25;;;;;;;20.01;83.72;101929.72;5014166;28;20034;-79
2023/09/26 10:42:12;;;;;;;1.50;1.40;;;;;;;20.05;83.42;101920.75;5014605;28;20025;-79
2023/09/26 10:44:40;;;;;;;1.48;1.38;;;;;;;20.14;84.53;101930.09;5014062;28;20034;-81
2023/09/26 10:47:06;;;;;;;1.30;1.20;;;;;;;20.18;84.20;101913.25;5033883;28;20065;-80
2023/09/26 10:49:32;;;;;;;1.47;1.37;;;;;;;20.24;83.96;101913.00;5017900;28;20050;-80
2023/09/26 10:51:59;;;;;;;1.45;1.35;;;;;;;20.27;83.53;101918.16;5030872;28;20026;-80
2023/09/26 10:54:26;;;;;;;1.30;1.20;;;;;;;20.26;83.33;101920.88;5033619;28;20040;-82
2023/09/26 10:56:52;;;;;;;1.38;1.25;;;;;;;20.29;83.83;101931.28;5031962;28;20763;-80
2023/09/26 10:59:18;;;;;;;1.08;1.08;;;;;;;20.27;82.33;101922.56;5033152;28;20025;-81
2023/09/26 11:02:00;;;;;;;1.43;1.33;;;;;;;20.29;82.06;101911.06;5033401;28;20088;-80
2023/09/26 11:04:29;;;;;;;1.40;1.23;;;;;;;20.39;83.44;101908.91;5018859;28;20050;-81
2023/09/26 11:06:59;;;;;;;2.03;1.30;;;;;;;20.47;81.18;101913.88;5014060;28;20058;-81
2023/09/26 11:09:25;;;;;;;1.55;1.33;;;;;;;20.56;82.95;101920.56;5013987;28;20105;-81
2023/09/26 11:11:51;;;;;;;;;;;;;;;20.65;82.13;101928.09;5013635;28;20025;-80
2023/09/26 11:14:17;;;;;;;2.58;1.38;;;;;;;20.68;82.30;101933.25;5012458;28;19913;-80
2023/09/26 11:16:43;;;;;;;1.17;1.17;;;;;;;20.70;81.93;101930.53;5013444;28;20034;-82
2023/09/26 11:19:11;;;;;;;2.05;1.48;;;;;;;20.71;82.16;101929.63;5013019;28;20068;-82
2023/09/26 11:21:37;;;;;;;1.23;1.13;;;;;;;20.72;81.25;101924.28;5013160;28;20030;-82
2023/09/26 11:24:27;;;;;;;1.50;1.23;;;;;;;20.75;82.72;101920.72;5013559;28;20080;-82
2023/09/26 11:26:56;;;;;;;1.60;1.50;;;;;;;20.70;78.29;101907.69;5012135;28;20368;-82
2023/09/26 11:29:23;;;;;;;1.50;1.40;;;;;;;20.67;81.70;101897.25;5236489;22;20099;-82
2023/09/26 11:31:56;;;;;;;1.50;1.40;;;;;;;20.73;82.43;101898.78;5052548;28;20033;-83
2023/09/26 11:34:47;;;;;;;1.50;1.40;;;;;;;20.83;81.71;101913.31;5042815;28;20393;-82
2023/09/26 11:37:22;;;;;;;1.20;1.10;;;;;;;20.82;81.88;101914.25;5052083;28;20048;-82
2023/09/26 11:39:55;;;;;;;1.55;1.40;;;;;;;20.86;81.08;101909.69;5032419;28;20036;-82
2023/09/26 11:42:20;;;;;;;1.27;1.17;;;;;;;20.95;80.46;101904.91;5032859;28;20085;-83
2023/09/26 11:44:57;;;;;;;0.80;0.80;;;;;;;20.96;77.75;101903.97;5033186;28;20018;-83
2023/09/26 11:47:24;;;;;;;2.03;1.83;;;;;;;21.03;77.41;101899.28;5047068;22;20049;-82
2023/09/26 11:49:51;;;;;;;1.88;1.70;;;;;;;21.05;79.46;101897.47;5033114;28;20036;-81
2023/09/26 11:52:17;;;;;;;1.52;1.42;;;;;;;21.09;80.39;101899.03;5032619;28;20029;-82
2023/09/26 11:54:44;;;;;;;1.50;1.40;;;;;;;21.11;78.84;101894.53;5032124;28;20022;-81
2023/09/26 11:57:13;;;;;;;1.40;1.30;;;;;;;21.13;80.25;101884.78;5032543;28;20033;-82
2023/09/26 11:59:40;;;;;;;1.33;1.23;;;;;;;21.17;80.23;101885.50;5032995;28;20095;-82
2023/09/26 12:02:06;;;;;;;1.33;1.23;;;;;;;21.25;80.72;101885.16;5031606;28;20410;-82
2023/09/26 12:04:32;;;;;;;1.10;1.10;;;;;;;21.33;78.58;101887.47;5032890;28;20029;-82
2023/09/26 12:07:00;;;;;;;1.30;1.20;;;;;;;21.38;79.49;101875.78;5032045;28;20098;-82
2023/09/26 12:09:29;;;;;;;1.10;1.08;;;;;;;21.41;80.26;101880.91;5032501;28;20030;-82
2023/09/26 12:11:55;;;;;;;0.90;0.90;;;;;;;21.49;80.29;101872.66;5032974;28;20051;-82
2023/09/26 12:14:21;;;;;;;1.98;1.40;;;;;;;21.54;80.63;101864.50;5031550;28;20025;-82
2023/09/26 12:16:53;;;;;;;1.20;1.10;;;;;;;21.49;80.16;101853.31;5032525;28;20029;-82
2023/09/26 12:19:24;;;;;;;1.23;1.13;;;;;;;21.52;80.36;101859.31;5032338;28;20045;-82